KCRW/CRW METAR and TAF weather

Enter ICAO airport designator
Station Type Date Time Source
KCRW METAR 2020/07/14 16:54 UTC NOAA

KCRW 141654Z 01003KT 10SM BKN045 BKN065 28/17 A3006 RMK AO2 SLP169 T02780167


Station Type Date Time Source
KCRW Decoded METAR 2020/07/14 16:54 UTC NOAA

YEAGER AIRPORT, WV, United States (KCRW) 38-22N 081-36W 309M
Jul 14, 2020 - 12:54 PM EDT / 2020.07.14 1654 UTC
Wind: from the N (010 degrees) at 3 MPH (3 KT):0
Visibility: 10 mile(s):0
Sky conditions: mostly cloudy
Temperature: 82.0 F (27.8 C)
Dew Point: 62.1 F (16.7 C)
Relative Humidity: 50%
Pressure (altimeter): 30.06 in. Hg (1017 hPa)
ob: KCRW 141654Z 01003KT 10SM BKN045 BKN065 28/17 A3006 RMK AO2 SLP169 T02780167
cycle: 17

Station Type Date Time Source
KCRW TAF 2020/07/14 18:22 UTC NOAA

TAF KCRW 141720Z 1418/1518 VRB03KT P6SM FEW040
FM151000 00000KT 3SM BR BKN001
FM151300 00000KT P6SM SKC

Example: see airport list